sensor_id;sensor_type;location;lat;lon;timestamp;pressure;altitude;pressure_sealevel;temperature;humidity
60974;BME280;46846;51.528;5.076;2022-08-19T00:01:22;100812.34;;;22.63;50.54
60974;BME280;46846;51.528;5.076;2022-08-19T00:03:47;100813.34;;;22.62;50.38
60974;BME280;46846;51.528;5.076;2022-08-19T00:06:13;100808.91;;;22.61;50.45
60974;BME280;46846;51.528;5.076;2022-08-19T00:08:38;100815.34;;;22.60;50.38
60974;BME280;46846;51.528;5.076;2022-08-19T00:11:04;100813.50;;;22.61;50.64
60974;BME280;46846;51.528;5.076;2022-08-19T00:13:30;100811.91;;;22.58;50.50
60974;BME280;46846;51.528;5.076;2022-08-19T00:15:56;100817.44;;;22.57;50.12
60974;BME280;46846;51.528;5.076;2022-08-19T00:18:21;100822.00;;;22.56;50.09
60974;BME280;46846;51.528;5.076;2022-08-19T00:20:47;100813.16;;;22.54;50.26
60974;BME280;46846;51.528;5.076;2022-08-19T00:23:12;100817.09;;;22.50;50.50
60974;BME280;46846;51.528;5.076;2022-08-19T00:25:38;100817.97;;;22.50;50.22
60974;BME280;46846;51.528;5.076;2022-08-19T00:28:04;100814.50;;;22.48;50.32
60974;BME280;46846;51.528;5.076;2022-08-19T00:30:30;100810.09;;;22.47;50.46
60974;BME280;46846;51.528;5.076;2022-08-19T00:32:56;100818.47;;;22.44;50.31
60974;BME280;46846;51.528;5.076;2022-08-19T00:35:22;100817.47;;;22.45;50.21
60974;BME280;46846;51.528;5.076;2022-08-19T00:37:48;100807.78;;;22.43;50.29
60974;BME280;46846;51.528;5.076;2022-08-19T00:40:15;100813.31;;;22.41;50.44
60974;BME280;46846;51.528;5.076;2022-08-19T00:42:41;100816.25;;;22.38;50.28
60974;BME280;46846;51.528;5.076;2022-08-19T00:45:14;100820.72;;;22.39;49.93
60974;BME280;46846;51.528;5.076;2022-08-19T00:47:39;100817.53;;;22.34;50.34
60974;BME280;46846;51.528;5.076;2022-08-19T00:50:05;100815.09;;;22.31;50.19
60974;BME280;46846;51.528;5.076;2022-08-19T00:52:35;100815.09;;;22.31;50.18
60974;BME280;46846;51.528;5.076;2022-08-19T00:55:04;100808.94;;;22.29;50.29
60974;BME280;46846;51.528;5.076;2022-08-19T00:57:42;100811.78;;;22.27;49.91
60974;BME280;46846;51.528;5.076;2022-08-19T01:00:12;100806.63;;;22.24;50.16
60974;BME280;46846;51.528;5.076;2022-08-19T01:02:40;100807.59;;;22.23;50.18
60974;BME280;46846;51.528;5.076;2022-08-19T01:05:09;100816.84;;;22.20;50.08
60974;BME280;46846;51.528;5.076;2022-08-19T01:07:37;100818.84;;;22.18;50.28
60974;BME280;46846;51.528;5.076;2022-08-19T01:10:10;100816.38;;;22.15;50.22
60974;BME280;46846;51.528;5.076;2022-08-19T01:12:36;100820.06;;;22.14;50.18
60974;BME280;46846;51.528;5.076;2022-08-19T01:15:06;100818.47;;;22.11;50.20
60974;BME280;46846;51.528;5.076;2022-08-19T01:17:34;100823.28;;;22.08;50.26
60974;BME280;46846;51.528;5.076;2022-08-19T01:20:02;100827.00;;;22.07;50.26
60974;BME280;46846;51.528;5.076;2022-08-19T01:22:37;100819.97;;;22.04;49.93
60974;BME280;46846;51.528;5.076;2022-08-19T01:25:06;100818.53;;;22.00;50.65
60974;BME280;46846;51.528;5.076;2022-08-19T01:27:45;100816.81;;;21.99;50.06
60974;BME280;46846;51.528;5.076;2022-08-19T01:30:20;100818.66;;;21.98;50.50
60974;BME280;46846;51.528;5.076;2022-08-19T01:32:46;100818.66;;;21.98;50.35
60974;BME280;46846;51.528;5.076;2022-08-19T01:35:12;100813.34;;;21.97;50.12
60974;BME280;46846;51.528;5.076;2022-08-19T01:37:45;100815.22;;;21.96;50.12
60974;BME280;46846;51.528;5.076;2022-08-19T01:40:11;100817.22;;;21.94;50.52
60974;BME280;46846;51.528;5.076;2022-08-19T01:42:36;100812.91;;;21.92;50.21
60974;BME280;46846;51.528;5.076;2022-08-19T01:45:03;100817.44;;;21.91;50.31
60974;BME280;46846;51.528;5.076;2022-08-19T01:47:28;100817.59;;;21.90;50.41
60974;BME280;46846;51.528;5.076;2022-08-19T01:49:54;100831.38;;;21.87;50.18
60974;BME280;46846;51.528;5.076;2022-08-19T01:52:19;100818.94;;;21.84;50.22
60974;BME280;46846;51.528;5.076;2022-08-19T01:54:44;100821.81;;;21.82;50.42
60974;BME280;46846;51.528;5.076;2022-08-19T01:57:12;100827.22;;;21.82;50.06
60974;BME280;46846;51.528;5.076;2022-08-19T01:59:40;100822.91;;;21.80;50.19
60974;BME280;46846;51.528;5.076;2022-08-19T02:02:06;100832.25;;;21.76;50.18
60974;BME280;46846;51.528;5.076;2022-08-19T02:04:35;100828.72;;;21.75;50.20
60974;BME280;46846;51.528;5.076;2022-08-19T02:07:03;100832.38;;;21.74;50.15
60974;BME280;46846;51.528;5.076;2022-08-19T02:09:28;100837.19;;;21.70;50.22
60974;BME280;46846;51.528;5.076;2022-08-19T02:11:55;100846.31;;;21.69;50.28
60974;BME280;46846;51.528;5.076;2022-08-19T02:14:21;100843.81;;;21.66;50.48
60974;BME280;46846;51.528;5.076;2022-08-19T02:16:46;100846.53;;;21.66;50.51
60974;BME280;46846;51.528;5.076;2022-08-19T02:19:11;100843.94;;;21.65;50.31
60974;BME280;46846;51.528;5.076;2022-08-19T02:21:37;100847.63;;;21.64;50.17
60974;BME280;46846;51.528;5.076;2022-08-19T02:24:02;100843.31;;;21.61;50.35
60974;BME280;46846;51.528;5.076;2022-08-19T02:26:28;100850.59;;;21.61;50.20
60974;BME280;46846;51.528;5.076;2022-08-19T02:28:54;100839.03;;;21.58;50.40
60974;BME280;46846;51.528;5.076;2022-08-19T02:31:22;100832.88;;;21.56;50.18
60974;BME280;46846;51.528;5.076;2022-08-19T02:33:48;100836.56;;;21.55;50.24
60974;BME280;46846;51.528;5.076;2022-08-19T02:36:15;100829.56;;;21.53;50.28
60974;BME280;46846;51.528;5.076;2022-08-19T02:38:42;100838.66;;;21.52;50.27
60974;BME280;46846;51.528;5.076;2022-08-19T02:41:14;100838.66;;;21.52;50.02
60974;BME280;46846;51.528;5.076;2022-08-19T02:43:41;100838.16;;;21.47;50.17
60974;BME280;46846;51.528;5.076;2022-08-19T02:46:24;100842.84;;;21.44;50.24
60974;BME280;46846;51.528;5.076;2022-08-19T02:48:59;100829.44;;;21.43;50.20
60974;BME280;46846;51.528;5.076;2022-08-19T02:51:43;100845.81;;;21.41;50.04
60974;BME280;46846;51.528;5.076;2022-08-19T02:54:10;100840.41;;;21.41;50.67
60974;BME280;46846;51.528;5.076;2022-08-19T02:56:38;100843.22;;;21.40;50.30
60974;BME280;46846;51.528;5.076;2022-08-19T02:59:04;100851.47;;;21.38;50.16
60974;BME280;46846;51.528;5.076;2022-08-19T03:01:34;100835.59;;;21.34;50.39
60974;BME280;46846;51.528;5.076;2022-08-19T03:04:02;100836.47;;;21.34;50.14
60974;BME280;46846;51.528;5.076;2022-08-19T03:06:28;100821.34;;;21.31;50.57
60974;BME280;46846;51.528;5.076;2022-08-19T03:08:54;100838.56;;;21.30;50.27
60974;BME280;46846;51.528;5.076;2022-08-19T03:11:28;100827.84;;;21.29;50.20
60974;BME280;46846;51.528;5.076;2022-08-19T03:13:54;100820.84;;;21.26;50.43
60974;BME280;46846;51.528;5.076;2022-08-19T03:16:22;100823.66;;;21.25;50.46
60974;BME280;46846;51.528;5.076;2022-08-19T03:18:49;100828.34;;;21.23;50.21
60974;BME280;46846;51.528;5.076;2022-08-19T03:21:26;100837.44;;;21.22;50.08
60974;BME280;46846;51.528;5.076;2022-08-19T03:23:56;100844.94;;;21.18;50.20
60974;BME280;46846;51.528;5.076;2022-08-19T03:26:22;100842.38;;;21.16;50.54
60974;BME280;46846;51.528;5.076;2022-08-19T03:28:47;100843.34;;;21.15;50.60
60974;BME280;46846;51.528;5.076;2022-08-19T03:31:16;100833.63;;;21.13;50.54
60974;BME280;46846;51.528;5.076;2022-08-19T03:33:43;100834.72;;;21.10;50.41
60974;BME280;46846;51.528;5.076;2022-08-19T03:36:09;100831.19;;;21.10;50.53
60974;BME280;46846;51.528;5.076;2022-08-19T03:38:38;100833.16;;;21.08;50.65
60974;BME280;46846;51.528;5.076;2022-08-19T03:41:06;100842.22;;;21.07;50.45
60974;BME280;46846;51.528;5.076;2022-08-19T03:43:37;100831.78;;;21.02;50.31
60974;BME280;46846;51.528;5.076;2022-08-19T03:46:05;100829.94;;;21.02;50.49
60974;BME280;46846;51.528;5.076;2022-08-19T03:48:33;100830.06;;;21.01;50.73
60974;BME280;46846;51.528;5.076;2022-08-19T03:51:00;100822.19;;;20.98;50.58
60974;BME280;46846;51.528;5.076;2022-08-19T03:53:27;100829.44;;;20.97;50.47
60974;BME280;46846;51.528;5.076;2022-08-19T03:55:54;100817.88;;;20.95;50.36
60974;BME280;46846;51.528;5.076;2022-08-19T03:58:20;100816.03;;;20.96;50.66
60974;BME280;46846;51.528;5.076;2022-08-19T04:00:46;100821.69;;;20.93;50.67
60974;BME280;46846;51.528;5.076;2022-08-19T04:03:11;100817.53;;;20.88;50.45
60974;BME280;46846;51.528;5.076;2022-08-19T04:05:36;100820.34;;;20.87;50.83
60974;BME280;46846;51.528;5.076;2022-08-19T04:08:03;100822.16;;;20.86;50.72
60974;BME280;46846;51.528;5.076;2022-08-19T04:10:34;100820.44;;;20.85;50.75
60974;BME280;46846;51.528;5.076;2022-08-19T04:13:00;100826.06;;;20.82;50.59
60974;BME280;46846;51.528;5.076;2022-08-19T04:15:25;100823.59;;;20.79;50.73
60974;BME280;46846;51.528;5.076;2022-08-19T04:17:51;100822.88;;;20.77;50.69
60974;BME280;46846;51.528;5.076;2022-08-19T04:20:16;100821.97;;;20.76;50.81
60974;BME280;46846;51.528;5.076;2022-08-19T04:22:42;100822.25;;;20.73;51.32
60974;BME280;46846;51.528;5.076;2022-08-19T04:25:08;100816.94;;;20.72;50.74
60974;BME280;46846;51.528;5.076;2022-08-19T04:27:33;100815.34;;;20.69;51.06
60974;BME280;46846;51.528;5.076;2022-08-19T04:29:59;100819.91;;;20.69;50.89
60974;BME280;46846;51.528;5.076;2022-08-19T04:32:24;100810.91;;;20.68;50.82
60974;BME280;46846;51.528;5.076;2022-08-19T04:34:49;100815.59;;;20.66;50.77
60974;BME280;46846;51.528;5.076;2022-08-19T04:37:15;100809.56;;;20.62;50.70
60974;BME280;46846;51.528;5.076;2022-08-19T04:39:40;100820.47;;;20.61;50.63
60974;BME280;46846;51.528;5.076;2022-08-19T04:42:24;100813.47;;;20.58;50.54
60974;BME280;46846;51.528;5.076;2022-08-19T04:45:10;100816.31;;;20.57;50.67
60974;BME280;46846;51.528;5.076;2022-08-19T04:47:37;100819.84;;;20.57;50.79
60974;BME280;46846;51.528;5.076;2022-08-19T04:50:04;100819.22;;;20.54;50.80
60974;BME280;46846;51.528;5.076;2022-08-19T04:52:29;100822.91;;;20.53;51.06
60974;BME280;46846;51.528;5.076;2022-08-19T04:54:56;100831.03;;;20.53;51.01
60974;BME280;46846;51.528;5.076;2022-08-19T04:57:22;100825.00;;;20.49;51.27
60974;BME280;46846;51.528;5.076;2022-08-19T04:59:48;100836.06;;;20.46;50.96
60974;BME280;46846;51.528;5.076;2022-08-19T05:02:13;100838.75;;;20.46;51.00
60974;BME280;46846;51.528;5.076;2022-08-19T05:04:39;100841.69;;;20.43;51.28
60974;BME280;46846;51.528;5.076;2022-08-19T05:07:05;100838.97;;;20.43;50.92
60974;BME280;46846;51.528;5.076;2022-08-19T05:09:30;100851.75;;;20.41;51.33
60974;BME280;46846;51.528;5.076;2022-08-19T05:11:56;100846.25;;;20.42;51.16
60974;BME280;46846;51.528;5.076;2022-08-19T05:14:21;100840.94;;;20.41;51.58
60974;BME280;46846;51.528;5.076;2022-08-19T05:16:47;100852.97;;;20.37;51.17
60974;BME280;46846;51.528;5.076;2022-08-19T05:19:14;100856.63;;;20.35;51.11
60974;BME280;46846;51.528;5.076;2022-08-19T05:21:59;100857.50;;;20.36;51.24
60974;BME280;46846;51.528;5.076;2022-08-19T05:24:43;100861.41;;;20.32;51.88
60974;BME280;46846;51.528;5.076;2022-08-19T05:27:08;100866.94;;;20.30;51.17
60974;BME280;46846;51.528;5.076;2022-08-19T05:29:34;100857.34;;;20.26;51.37
60974;BME280;46846;51.528;5.076;2022-08-19T05:32:01;100855.63;;;20.25;51.57
60974;BME280;46846;51.528;5.076;2022-08-19T05:34:27;100853.91;;;20.24;51.36
60974;BME280;46846;51.528;5.076;2022-08-19T05:36:57;100857.34;;;20.26;51.13
60974;BME280;46846;51.528;5.076;2022-08-19T05:39:29;100856.59;;;20.24;51.25
60974;BME280;46846;51.528;5.076;2022-08-19T05:41:58;100857.44;;;20.25;51.48
60974;BME280;46846;51.528;5.076;2022-08-19T05:44:25;100861.28;;;20.22;51.41
60974;BME280;46846;51.528;5.076;2022-08-19T05:46:51;100846.78;;;20.23;51.03
60974;BME280;46846;51.528;5.076;2022-08-19T05:49:22;100851.56;;;20.19;51.51
60974;BME280;46846;51.528;5.076;2022-08-19T05:51:48;100854.13;;;20.21;51.34
60974;BME280;46846;51.528;5.076;2022-08-19T05:54:14;100857.06;;;20.18;51.54
60974;BME280;46846;51.528;5.076;2022-08-19T05:56:41;100852.41;;;20.20;51.40
60974;BME280;46846;51.528;5.076;2022-08-19T05:59:08;100856.06;;;20.19;51.10
60974;BME280;46846;51.528;5.076;2022-08-19T06:01:38;100855.22;;;20.18;51.37
60974;BME280;46846;51.528;5.076;2022-08-19T06:04:04;100853.50;;;20.17;51.42
60974;BME280;46846;51.528;5.076;2022-08-19T06:06:33;100857.94;;;20.18;51.40
60974;BME280;46846;51.528;5.076;2022-08-19T06:09:06;100875.22;;;20.16;51.49
60974;BME280;46846;51.528;5.076;2022-08-19T06:14:06;100862.47;;;20.18;51.22
60974;BME280;46846;51.528;5.076;2022-08-19T06:16:34;100860.75;;;20.17;51.23
60974;BME280;46846;51.528;5.076;2022-08-19T06:19:03;100857.06;;;20.18;51.67
60974;BME280;46846;51.528;5.076;2022-08-19T06:21:29;100860.00;;;20.15;50.96
60974;BME280;46846;51.528;5.076;2022-08-19T06:23:56;100847.47;;;20.14;51.61
60974;BME280;46846;51.528;5.076;2022-08-19T06:26:22;100852.63;;;20.17;51.50
60974;BME280;46846;51.528;5.076;2022-08-19T06:28:48;100860.63;;;20.18;51.78
60974;BME280;46846;51.528;5.076;2022-08-19T06:31:15;100857.16;;;20.16;51.17
60974;BME280;46846;51.528;5.076;2022-08-19T06:33:42;100867.88;;;20.18;51.52
60974;BME280;46846;51.528;5.076;2022-08-19T06:36:15;100863.44;;;20.17;51.22
60974;BME280;46846;51.528;5.076;2022-08-19T06:38:41;100860.13;;;20.13;51.44
60974;BME280;46846;51.528;5.076;2022-08-19T06:41:06;100863.19;;;20.20;51.21
60974;BME280;46846;51.528;5.076;2022-08-19T06:43:31;100858.44;;;20.24;51.45
60974;BME280;46846;51.528;5.076;2022-08-19T06:45:57;100864.91;;;20.21;51.37
60974;BME280;46846;51.528;5.076;2022-08-19T06:48:24;100866.78;;;20.20;51.35
60974;BME280;46846;51.528;5.076;2022-08-19T06:50:49;100872.28;;;20.19;51.35
60974;BME280;46846;51.528;5.076;2022-08-19T06:53:16;100875.44;;;20.13;51.42
60974;BME280;46846;51.528;5.076;2022-08-19T06:55:44;100868.75;;;20.18;51.82
60974;BME280;46846;51.528;5.076;2022-08-19T06:58:10;100873.78;;;20.23;51.42
60974;BME280;46846;51.528;5.076;2022-08-19T07:00:36;100865.91;;;20.20;51.56
60974;BME280;46846;51.528;5.076;2022-08-19T07:03:01;100864.91;;;20.21;51.68
60974;BME280;46846;51.528;5.076;2022-08-19T07:05:27;100871.84;;;20.25;51.96
60974;BME280;46846;51.528;5.076;2022-08-19T07:07:52;100874.88;;;20.20;52.09
60974;BME280;46846;51.528;5.076;2022-08-19T07:10:18;100877.25;;;20.25;52.55
60974;BME280;46846;51.528;5.076;2022-08-19T07:12:44;100875.50;;;20.24;53.47
60974;BME280;46846;51.528;5.076;2022-08-19T07:15:11;100874.88;;;20.20;52.04
60974;BME280;46846;51.528;5.076;2022-08-19T07:17:37;100879.19;;;20.23;52.16
60974;BME280;46846;51.528;5.076;2022-08-19T07:20:06;100891.94;;;20.21;52.29
60974;BME280;46846;51.528;5.076;2022-08-19T07:22:34;100882.63;;;20.25;52.84
60974;BME280;46846;51.528;5.076;2022-08-19T07:25:00;100882.41;;;20.28;52.29
60974;BME280;46846;51.528;5.076;2022-08-19T07:27:26;100880.69;;;20.27;52.26
60974;BME280;46846;51.528;5.076;2022-08-19T07:29:53;100889.56;;;20.29;52.34
60974;BME280;46846;51.528;5.076;2022-08-19T07:32:18;100883.38;;;20.27;52.59
60974;BME280;46846;51.528;5.076;2022-08-19T07:34:43;100882.00;;;20.21;52.60
60974;BME280;46846;51.528;5.076;2022-08-19T07:37:10;100882.63;;;20.25;52.76
60974;BME280;46846;51.528;5.076;2022-08-19T07:39:37;100881.66;;;20.26;52.93
60974;BME280;46846;51.528;5.076;2022-08-19T07:42:08;100889.56;;;20.29;52.74
60974;BME280;46846;51.528;5.076;2022-08-19T07:44:34;100885.88;;;20.30;52.45
60974;BME280;46846;51.528;5.076;2022-08-19T07:47:00;100887.34;;;20.34;53.13
60974;BME280;46846;51.528;5.076;2022-08-19T07:49:27;100882.88;;;20.22;52.78
60974;BME280;46846;51.528;5.076;2022-08-19T07:51:55;100885.69;;;20.20;53.19
60974;BME280;46846;51.528;5.076;2022-08-19T07:54:24;100894.03;;;20.17;53.05
60974;BME280;46846;51.528;5.076;2022-08-19T07:56:50;100903.88;;;20.18;53.99
60974;BME280;46846;51.528;5.076;2022-08-19T07:59:19;100908.16;;;20.21;53.25
60974;BME280;46846;51.528;5.076;2022-08-19T08:01:46;100903.38;;;20.25;53.25
60974;BME280;46846;51.528;5.076;2022-08-19T08:04:13;100902.53;;;20.24;54.76
60974;BME280;46846;51.528;5.076;2022-08-19T08:06:57;100908.28;;;20.44;56.51
60974;BME280;46846;51.528;5.076;2022-08-19T08:09:43;100898.59;;;20.53;57.70
60974;BME280;46846;51.528;5.076;2022-08-19T08:12:15;100907.81;;;20.50;57.89
60974;BME280;46846;51.528;5.076;2022-08-19T08:14:47;100905.50;;;20.57;59.00
60974;BME280;46846;51.528;5.076;2022-08-19T08:17:15;100909.03;;;20.46;59.03
60974;BME280;46846;51.528;5.076;2022-08-19T08:19:42;100922.75;;;20.43;59.68
60974;BME280;46846;51.528;5.076;2022-08-19T08:22:08;100918.63;;;20.50;58.83
60974;BME280;46846;51.528;5.076;2022-08-19T08:24:54;100921.03;;;20.42;59.17
60974;BME280;46846;51.528;5.076;2022-08-19T08:27:19;100934.25;;;20.33;59.42
60974;BME280;46846;51.528;5.076;2022-08-19T08:29:45;100927.50;;;20.28;59.40
60974;BME280;46846;51.528;5.076;2022-08-19T08:32:10;100929.31;;;20.27;59.30
60974;BME280;46846;51.528;5.076;2022-08-19T08:34:35;100922.44;;;20.23;59.30
60974;BME280;46846;51.528;5.076;2022-08-19T08:37:02;100932.78;;;20.29;59.68
60974;BME280;46846;51.528;5.076;2022-08-19T08:39:28;100932.25;;;20.24;58.37
60974;BME280;46846;51.528;5.076;2022-08-19T08:42:20;100937.41;;;20.27;58.34
60974;BME280;46846;51.528;5.076;2022-08-19T08:44:54;100934.97;;;20.24;58.37
60974;BME280;46846;51.528;5.076;2022-08-19T08:47:21;100938.28;;;20.28;57.92
60974;BME280;46846;51.528;5.076;2022-08-19T08:49:53;100945.53;;;20.27;58.17
60974;BME280;46846;51.528;5.076;2022-08-19T08:52:26;100939.72;;;20.20;57.91
60974;BME280;46846;51.528;5.076;2022-08-19T08:54:57;100945.75;;;20.24;57.92
60974;BME280;46846;51.528;5.076;2022-08-19T08:57:28;100946.94;;;20.20;57.92
60974;BME280;46846;51.528;5.076;2022-08-19T09:00:00;100943.28;;;20.21;57.66
60974;BME280;46846;51.528;5.076;2022-08-19T09:02:29;100944.59;;;20.15;57.52
60974;BME280;46846;51.528;5.076;2022-08-19T09:04:54;100950.63;;;20.19;57.42
60974;BME280;46846;51.528;5.076;2022-08-19T09:07:29;100950.44;;;20.22;57.63
60974;BME280;46846;51.528;5.076;2022-08-19T09:13:07;100944.88;;;20.24;57.18
60974;BME280;46846;51.528;5.076;2022-08-19T09:15:49;100934.84;;;20.26;57.02
60974;BME280;46846;51.528;5.076;2022-08-19T09:18:17;100946.75;;;20.23;57.43
60974;BME280;46846;51.528;5.076;2022-08-19T09:20:44;100952.00;;;20.25;57.50
60974;BME280;46846;51.528;5.076;2022-08-19T09:23:12;100950.94;;;20.27;57.73
60974;BME280;46846;51.528;5.076;2022-08-19T09:25:37;100952.66;;;20.28;57.06
60974;BME280;46846;51.528;5.076;2022-08-19T09:28:06;100951.69;;;20.29;57.53
60974;BME280;46846;51.528;5.076;2022-08-19T09:30:39;100950.72;;;20.30;56.49
60974;BME280;46846;51.528;5.076;2022-08-19T09:33:06;100952.34;;;20.33;56.96
60974;BME280;46846;51.528;5.076;2022-08-19T09:35:31;100953.06;;;20.35;57.42
60974;BME280;46846;51.528;5.076;2022-08-19T09:37:57;100947.66;;;20.35;56.90
60974;BME280;46846;51.528;5.076;2022-08-19T09:40:24;100956.41;;;20.39;56.97
60974;BME280;46846;51.528;5.076;2022-08-19T09:42:50;100953.91;;;20.35;56.94
60974;BME280;46846;51.528;5.076;2022-08-19T09:45:18;100955.44;;;20.40;56.66
60974;BME280;46846;51.528;5.076;2022-08-19T09:47:46;100954.78;;;20.36;56.69
60974;BME280;46846;51.528;5.076;2022-08-19T09:50:11;100949.38;;;20.36;57.32
60974;BME280;46846;51.528;5.076;2022-08-19T09:52:37;100953.72;;;20.39;57.22
60974;BME280;46846;51.528;5.076;2022-08-19T09:55:07;100956.16;;;20.42;57.33
60974;BME280;46846;51.528;5.076;2022-08-19T09:57:33;100958.03;;;20.41;56.76
60974;BME280;46846;51.528;5.076;2022-08-19T09:59:59;100960.53;;;20.31;56.78
60974;BME280;46846;51.528;5.076;2022-08-19T10:02:25;100957.03;;;20.42;56.67
60974;BME280;46846;51.528;5.076;2022-08-19T10:04:51;100955.09;;;20.44;56.68
60974;BME280;46846;51.528;5.076;2022-08-19T10:07:35;100958.41;;;20.48;57.17
60974;BME280;46846;51.528;5.076;2022-08-19T10:10:01;100963.81;;;20.48;56.38
60974;BME280;46846;51.528;5.076;2022-08-19T10:12:26;100964.06;;;20.45;57.06
60974;BME280;46846;51.528;5.076;2022-08-19T10:14:51;100966.41;;;20.49;57.11
60974;BME280;46846;51.528;5.076;2022-08-19T10:17:18;100964.91;;;20.45;56.61
60974;BME280;46846;51.528;5.076;2022-08-19T10:19:44;100959.78;;;20.54;56.92
60974;BME280;46846;51.528;5.076;2022-08-19T10:22:09;100958.84;;;20.55;57.60
60974;BME280;46846;51.528;5.076;2022-08-19T10:24:39;100955.72;;;20.48;56.56
60974;BME280;46846;51.528;5.076;2022-08-19T10:27:05;100951.06;;;20.50;56.47
60974;BME280;46846;51.528;5.076;2022-08-19T10:29:32;100950.84;;;20.53;56.29
60974;BME280;46846;51.528;5.076;2022-08-19T10:32:01;100943.91;;;20.49;56.66
60974;BME280;46846;51.528;5.076;2022-08-19T10:34:27;100947.16;;;20.54;56.26
60974;BME280;46846;51.528;5.076;2022-08-19T10:36:54;100945.94;;;20.58;56.91
60974;BME280;46846;51.528;5.076;2022-08-19T10:39:19;100945.19;;;20.56;56.51
60974;BME280;46846;51.528;5.076;2022-08-19T10:41:45;100947.03;;;20.56;56.19
60974;BME280;46846;51.528;5.076;2022-08-19T10:44:12;100945.94;;;20.58;56.23
60974;BME280;46846;51.528;5.076;2022-08-19T10:46:40;100957.84;;;20.56;56.43
60974;BME280;46846;51.528;5.076;2022-08-19T10:49:07;100948.78;;;20.57;56.80
60974;BME280;46846;51.528;5.076;2022-08-19T10:51:33;100948.53;;;20.60;56.89
60974;BME280;46846;51.528;5.076;2022-08-19T10:54:18;100945.19;;;20.56;56.77
60974;BME280;46846;51.528;5.076;2022-08-19T10:56:43;100942.94;;;20.50;56.40
60974;BME280;46846;51.528;5.076;2022-08-19T10:59:22;100934.97;;;20.48;56.05
60974;BME280;46846;51.528;5.076;2022-08-19T11:01:49;100942.63;;;20.55;57.00
60974;BME280;46846;51.528;5.076;2022-08-19T11:04:15;100929.94;;;20.55;56.30
60974;BME280;46846;51.528;5.076;2022-08-19T11:06:43;100933.03;;;20.62;56.66
60974;BME280;46846;51.528;5.076;2022-08-19T11:09:23;100926.31;;;20.68;56.68
60974;BME280;46846;51.528;5.076;2022-08-19T11:11:50;100924.88;;;20.75;57.79
60974;BME280;46846;51.528;5.076;2022-08-19T11:14:19;100927.53;;;20.88;57.65
60974;BME280;46846;51.528;5.076;2022-08-19T11:16:49;100931.13;;;20.88;56.43
60974;BME280;46846;51.528;5.076;2022-08-19T11:19:15;100927.53;;;20.88;56.49
60974;BME280;46846;51.528;5.076;2022-08-19T11:21:46;100920.94;;;20.79;56.24
60974;BME280;46846;51.528;5.076;2022-08-19T11:24:15;100920.94;;;20.79;56.34
60974;BME280;46846;51.528;5.076;2022-08-19T11:26:42;100923.72;;;20.90;57.62
60974;BME280;46846;51.528;5.076;2022-08-19T11:29:11;100925.72;;;21.00;57.01
60974;BME280;46846;51.528;5.076;2022-08-19T11:31:39;100923.75;;;21.02;56.83
60974;BME280;46846;51.528;5.076;2022-08-19T11:34:08;100934.34;;;21.05;57.21
60974;BME280;46846;51.528;5.076;2022-08-19T11:36:36;100929.41;;;21.10;56.76
60974;BME280;46846;51.528;5.076;2022-08-19T11:39:05;100926.84;;;21.09;57.47
60974;BME280;46846;51.528;5.076;2022-08-19T11:41:31;100920.34;;;21.11;56.21
60974;BME280;46846;51.528;5.076;2022-08-19T11:43:56;100918.88;;;21.19;56.82
60974;BME280;46846;51.528;5.076;2022-08-19T11:46:23;100915.81;;;21.23;56.45
60974;BME280;46846;51.528;5.076;2022-08-19T11:48:49;100916.44;;;21.27;57.77
60974;BME280;46846;51.528;5.076;2022-08-19T11:51:20;100915.19;;;21.31;56.70
60974;BME280;46846;51.528;5.076;2022-08-19T11:53:47;100916.19;;;21.30;57.18
60974;BME280;46846;51.528;5.076;2022-08-19T11:56:14;100922.56;;;21.29;56.48
60974;BME280;46846;51.528;5.076;2022-08-19T11:58:39;100923.09;;;21.34;57.64
60974;BME280;46846;51.528;5.076;2022-08-19T12:01:14;100919.13;;;21.38;56.31
60974;BME280;46846;51.528;5.076;2022-08-19T12:03:41;100926.28;;;21.39;57.13
60974;BME280;46846;51.528;5.076;2022-08-19T12:06:14;100916.94;;;21.43;56.28
60974;BME280;46846;51.528;5.076;2022-08-19T12:08:41;100918.41;;;21.48;56.74
60974;BME280;46846;51.528;5.076;2022-08-19T12:11:08;100920.63;;;21.54;56.60
60974;BME280;46846;51.528;5.076;2022-08-19T12:13:34;100924.34;;;21.64;56.59
60974;BME280;46846;51.528;5.076;2022-08-19T12:16:00;100922.13;;;21.69;57.82
60974;BME280;46846;51.528;5.076;2022-08-19T12:18:31;100930.47;;;21.66;56.02
60974;BME280;46846;51.528;5.076;2022-08-19T12:20:57;100928.97;;;21.62;57.02
60974;BME280;46846;51.528;5.076;2022-08-19T12:23:22;100929.41;;;21.69;56.40
60974;BME280;46846;51.528;5.076;2022-08-19T12:25:49;100938.97;;;21.73;56.34
60974;BME280;46846;51.528;5.076;2022-08-19T12:28:22;100927.78;;;21.78;56.92
60974;BME280;46846;51.528;5.076;2022-08-19T12:30:49;100922.84;;;21.83;57.07
60974;BME280;46846;51.528;5.076;2022-08-19T12:33:17;100917.22;;;21.86;56.68
60974;BME280;46846;51.528;5.076;2022-08-19T12:35:44;100925.06;;;21.89;57.54
60974;BME280;46846;51.528;5.076;2022-08-19T12:38:11;100929.84;;;21.97;57.15
60974;BME280;46846;51.528;5.076;2022-08-19T12:40:36;100923.84;;;21.93;56.61
60974;BME280;46846;51.528;5.076;2022-08-19T12:43:02;100922.09;;;21.92;56.22
60974;BME280;46846;51.528;5.076;2022-08-19T12:45:28;100918.06;;;21.98;56.36
60974;BME280;46846;51.528;5.076;2022-08-19T12:47:53;100914.69;;;22.06;56.43
60974;BME280;46846;51.528;5.076;2022-08-19T12:50:19;100922.94;;;22.16;57.12
60974;BME280;46846;51.528;5.076;2022-08-19T12:52:47;100910.28;;;22.05;55.79
60974;BME280;46846;51.528;5.076;2022-08-19T12:55:13;100914.91;;;22.14;57.37
60974;BME280;46846;51.528;5.076;2022-08-19T12:57:38;100914.69;;;22.17;57.20
60974;BME280;46846;51.528;5.076;2022-08-19T13:00:13;100919.84;;;22.20;56.38